PWSweather.com
Personal Weather Stations
Station Observations
WIKENOS15
47th Ave & 30th St, Kenosha, WI 53144

47th Ave & 30th StKenosha, WI 53144

Lat: 42.612, Lon: -87.866

Elevation: 697

Station Type: Oregon Scientific 100N

High Low Average
Temperature 67.8°F19.9°C 45.3°F7.4°C 55.1°F12.8°C
Dew Point 45.7°F7.6°C 29.5°F-1.4°C 39.0°F3.9°C
Winds 12.7 mph 20.4 kmh 4.5 mph 7.2 kmh 8.0 mph WSW12.9 kmh WSW
Wind Gusts 16.1 mph25.9 kmh 5.3 mph8.5 kmh 10.0 mph16.1 kmh
Humidity 92% 24% 62%
Pressure 30.03 in1016.9 mb 29.82 in1009.8 mb -
Precipitation 0.00 in0.0 mm - -
Hour Temp Dew Point Humidity Winds Wind Gusts Pressure Precip Precip Rate Daily Precip Total
12:00 AM 50.2°F10.1°C 45.5°F7.5°C 84% 8.1 mph SW13.0 kmh SW 10.8 mph17.4 kmh 29.82 in1009.8 mb 0.00 in0.0 mm 0.00 in/hr0.0 mm/hr 0.00 in0.0 mm
01:00 AM 50.0°F10.0°C 45.7°F7.6°C 85% 8.4 mph SW13.5 kmh SW 12.9 mph20.8 kmh 29.86 in1011.2 mb 0.00 in0.0 mm 0.00 in/hr0.0 mm/hr 0.00 in0.0 mm
02:00 AM 49.5°F9.7°C 45.4°F7.4°C 86% 7.1 mph SW11.4 kmh SW 7.1 mph11.4 kmh 29.86 in1011.2 mb 0.00 in0.0 mm 0.00 in/hr0.0 mm/hr 0.00 in0.0 mm
03:00 AM 49.1°F9.5°C 45.4°F7.4°C 87% 4.5 mph SW7.2 kmh SW 8.1 mph13.0 kmh 29.86 in1011.2 mb 0.00 in0.0 mm 0.00 in/hr0.0 mm/hr 0.00 in0.0 mm
04:00 AM 47.8°F8.8°C 45.6°F7.6°C 92% 5.3 mph SW8.5 kmh SW 5.8 mph9.3 kmh 29.91 in1012.9 mb 0.00 in0.0 mm 0.00 in/hr0.0 mm/hr 0.00 in0.0 mm
05:00 AM 46.9°F8.3°C 44.7°F7.1°C 92% 4.6 mph WSW7.4 kmh WSW 7.6 mph12.2 kmh 29.91 in1012.9 mb 0.00 in0.0 mm 0.00 in/hr0.0 mm/hr 0.00 in0.0 mm
06:00 AM 45.3°F7.4°C 43.1°F6.2°C 92% 5.6 mph W9.0 kmh W 7.1 mph11.4 kmh 29.94 in1013.9 mb 0.00 in0.0 mm 0.00 in/hr0.0 mm/hr 0.00 in0.0 mm
07:00 AM 45.5°F7.5°C 43.3°F6.3°C 92% 5.0 mph WSW8.0 kmh WSW 5.3 mph8.5 kmh 29.97 in1014.9 mb 0.00 in0.0 mm 0.00 in/hr0.0 mm/hr 0.00 in0.0 mm
08:00 AM 50.4°F10.2°C 42.7°F5.9°C 75% 8.8 mph W14.2 kmh W 10.8 mph17.4 kmh 30.00 in1015.9 mb 0.00 in0.0 mm 0.00 in/hr0.0 mm/hr 0.00 in0.0 mm
09:00 AM 55.0°F12.8°C 37.2°F2.9°C 51% 11.0 mph W17.7 kmh W 12.0 mph19.3 kmh 30.00 in1015.9 mb 0.00 in0.0 mm 0.00 in/hr0.0 mm/hr 0.00 in0.0 mm
10:00 AM 58.1°F14.5°C 36.3°F2.4°C 44% 9.2 mph NW14.8 kmh NW 11.7 mph18.8 kmh 30.03 in1016.9 mb 0.00 in0.0 mm 0.00 in/hr0.0 mm/hr 0.00 in0.0 mm
11:00 AM 61.3°F16.3°C 34.1°F1.2°C 36% 8.1 mph NW13.0 kmh NW 10.8 mph17.4 kmh 30.03 in1016.9 mb 0.00 in0.0 mm 0.00 in/hr0.0 mm/hr 0.00 in0.0 mm
12:00 PM 62.1°F16.7°C 33.3°F0.7°C 34% 8.4 mph WNW13.5 kmh WNW 9.9 mph15.9 kmh 30.03 in1016.9 mb 0.00 in0.0 mm 0.00 in/hr0.0 mm/hr 0.00 in0.0 mm
01:00 PM 64.6°F18.1°C 29.9°F-1.2°C 27% 12.7 mph WNW20.4 kmh WNW 16.1 mph25.9 kmh 30.03 in1016.9 mb 0.00 in0.0 mm 0.00 in/hr0.0 mm/hr 0.00 in0.0 mm
02:00 PM 65.8°F18.8°C 30.0°F-1.1°C 26% 7.1 mph WSW11.4 kmh WSW 9.4 mph15.1 kmh 30.00 in1015.9 mb 0.00 in0.0 mm 0.00 in/hr0.0 mm/hr 0.00 in0.0 mm
03:00 PM 67.8°F19.9°C 30.7°F-0.7°C 25% 7.5 mph WSW12.1 kmh WSW 6.2 mph10.0 kmh 30.00 in1015.9 mb 0.00 in0.0 mm 0.00 in/hr0.0 mm/hr 0.00 in0.0 mm
04:00 PM 67.6°F19.8°C 29.5°F-1.4°C 24% 7.6 mph WSW12.2 kmh WSW 10.8 mph17.4 kmh 30.00 in1015.9 mb 0.00 in0.0 mm 0.00 in/hr0.0 mm/hr 0.00 in0.0 mm
07:00 PM 52.9°F11.6°C 26.6°F-3.0°C 36% 5.3 mph SE8.5 kmh SE 6.2 mph10.0 kmh 30.03 in1016.9 mb 0.00 in0.0 mm 0.00 in/hr0.0 mm/hr 0.00 in0.0 mm
08:00 PM 51.3°F10.7°C 25.8°F-3.4°C 37% 5.6 mph SE9.0 kmh SE 7.1 mph11.4 kmh 30.03 in1016.9 mb 0.00 in0.0 mm 0.00 in/hr0.0 mm/hr 0.00 in0.0 mm
09:00 PM 50.2°F10.1°C 25.5°F-3.6°C 38% 7.0 mph ESE11.3 kmh ESE 10.8 mph17.4 kmh 30.03 in1016.9 mb 0.00 in0.0 mm 0.00 in/hr0.0 mm/hr 0.00 in0.0 mm
10:00 PM 50.0°F10.0°C 24.7°F-4.1°C 37% 5.0 mph SE8.0 kmh SE 7.6 mph12.2 kmh 30.03 in1016.9 mb 0.00 in0.0 mm 0.00 in/hr0.0 mm/hr 0.00 in0.0 mm
11:00 PM 49.5°F9.7°C 24.9°F-3.9°C 38% 8.9 mph S14.3 kmh S 10.8 mph17.4 kmh 30.00 in1015.9 mb 0.00 in0.0 mm 0.00 in/hr0.0 mm/hr 0.00 in0.0 mm